Cic Pride — H9SQ — position and weather

sailwx.info

Track history (hours):
 
Tides and Currents Weather Stations Pressure Air Temp Water Temp Dewpoint Dewpoint Depression Visibility Wind Speed Wind Dir Waves Ship Positions

Cic Pride

Last reported at 2017-Jun-02 18:34 UTC. Time now 2017-Jun-28 05:21 UTC.
Position S 33°19' E 028°54'.
Warning: this ship's position is 25 days out of date.

Length 289 m; draft 9.5 m.

Type: Cargo ship. MMSI: 351111000.

Date/timePositionNaut miles runAvg speedWind from/ knotsBaromVisibWave heightAir tempDewpointWater temp
2017-Jun-02 18:34S 33°19' E 028°54'115.7
2017-Jun-02 18:30S 33°19' E 028°55'815.6
2017-Jun-02 17:59S 33°15' E 029°04'915.6
2017-Jun-02 17:26S 33°12' E 029°13'1515.7
2017-Jun-02 16:30S 33°05' E 029°29'3115.5
2017-Jun-02 14:30S 32°52' E 030°02'2015.0
2017-Jun-02 13:09S 32°43' E 030°24'215.0
2017-Jun-02 13:00S 32°42' E 030°26'714.8
2017-Jun-02 12:30S 32°39' E 030°34'714.8
2017-Jun-02 12:00S 32°36' E 030°42'714.4
2017-Jun-02 11:30S 32°33' E 030°50'714.3
2017-Jun-02 11:00S 32°29' E 030°57'714.3
2017-Jun-02 10:30S 32°27' E 031°05'714.1
2017-Jun-02 10:00S 32°23' E 031°12'713.6
2017-Jun-02 09:30S 32°21' E 031°20'713.4
2017-Jun-02 09:00S 32°18' E 031°27'713.4
2017-Jun-02 08:29S 32°14' E 031°34'713.8
2017-Jun-02 08:00S 32°12' E 031°41'713.6
2017-Jun-02 07:30S 32°09' E 031°49'713.3
2017-Jun-02 07:00S 32°06' E 031°56'613.1
2017-Jun-02 06:30S 32°03' E 032°03'713.5
2017-Jun-02 06:00S 32°01' E 032°10'713.5
2017-Jun-02 05:30S 31°58' E 032°17'2413.9
2017-Jun-02 03:48S 31°47' E 032°42'1213.9
2017-Jun-02 02:58S 31°42' E 032°55'613.9
2017-Jun-02 02:30S 31°39' E 033°01'714.4
2017-Jun-02 02:00S 31°36' E 033°09'714.6
2017-Jun-02 01:30S 31°33' E 033°17'714.5
2017-Jun-02 01:00S 31°30' E 033°24'714.4
2017-Jun-02 00:30S 31°27' E 033°32'714.3
2017-Jun-02 00:00S 31°24' E 033°40'714.5
2017-Jun-01 23:30S 31°21' E 033°47'714.3
2017-Jun-01 23:00S 31°18' E 033°55'814.3
2017-Jun-01 22:27S 31°14' E 034°03'914.3
2017-Jun-01 21:48S 31°10' E 034°13'514.0
2017-Jun-01 21:28S 31°08' E 034°18'813.8
2017-Jun-01 20:52S 31°05' E 034°27'  
2017-May-28 22:09S 20°57' E 057°02'614.4
2017-May-28 21:43S 20°55' E 057°08'514.3
2017-May-28 21:21S 20°52' E 057°13'1914.2
2017-May-28 20:02S 20°44' E 057°31'513.7
2017-May-28 19:41S 20°41' E 057°35'413.7
2017-May-28 19:24S 20°39' E 057°39'613.5
2017-May-28 19:00S 20°36' E 057°43'  
Track history (hours):
 
Tides and Currents Weather Stations Pressure Air Temp Water Temp Dewpoint Dewpoint Depression Visibility Wind Speed Wind Dir Waves Ship Positions

Cic Pride

Last reported at 2017-Jun-02 18:34 UTC. Time now 2017-Jun-28 05:21 UTC.
Position S 33°19' E 028°54'.
Warning: this ship's position is 25 days out of date.

Length 289 m; draft 9.5 m.

Type: Cargo ship. MMSI: 351111000.

Date/timePositionNaut miles runAvg speedWind from/ knotsBaromVisibWave heightAir tempDewpointWater temp
2017-Jun-02 18:34S 33°19' E 028°54'115.7
2017-Jun-02 18:30S 33°19' E 028°55'815.6
2017-Jun-02 17:59S 33°15' E 029°04'915.6
2017-Jun-02 17:26S 33°12' E 029°13'1515.7
2017-Jun-02 16:30S 33°05' E 029°29'3115.5
2017-Jun-02 14:30S 32°52' E 030°02'2015.0
2017-Jun-02 13:09S 32°43' E 030°24'215.0
2017-Jun-02 13:00S 32°42' E 030°26'714.8
2017-Jun-02 12:30S 32°39' E 030°34'714.8
2017-Jun-02 12:00S 32°36' E 030°42'714.4
2017-Jun-02 11:30S 32°33' E 030°50'714.3
2017-Jun-02 11:00S 32°29' E 030°57'714.3
2017-Jun-02 10:30S 32°27' E 031°05'714.1
2017-Jun-02 10:00S 32°23' E 031°12'713.6
2017-Jun-02 09:30S 32°21' E 031°20'713.4
2017-Jun-02 09:00S 32°18' E 031°27'713.4
2017-Jun-02 08:29S 32°14' E 031°34'713.8
2017-Jun-02 08:00S 32°12' E 031°41'713.6
2017-Jun-02 07:30S 32°09' E 031°49'713.3
2017-Jun-02 07:00S 32°06' E 031°56'613.1
2017-Jun-02 06:30S 32°03' E 032°03'713.5
2017-Jun-02 06:00S 32°01' E 032°10'713.5
2017-Jun-02 05:30S 31°58' E 032°17'2413.9
2017-Jun-02 03:48S 31°47' E 032°42'1213.9
2017-Jun-02 02:58S 31°42' E 032°55'613.9
2017-Jun-02 02:30S 31°39' E 033°01'714.4
2017-Jun-02 02:00S 31°36' E 033°09'714.6
2017-Jun-02 01:30S 31°33' E 033°17'714.5
2017-Jun-02 01:00S 31°30' E 033°24'714.4
2017-Jun-02 00:30S 31°27' E 033°32'714.3
2017-Jun-02 00:00S 31°24' E 033°40'714.5
2017-Jun-01 23:30S 31°21' E 033°47'714.3
2017-Jun-01 23:00S 31°18' E 033°55'814.3
2017-Jun-01 22:27S 31°14' E 034°03'914.3
2017-Jun-01 21:48S 31°10' E 034°13'514.0
2017-Jun-01 21:28S 31°08' E 034°18'813.8
2017-Jun-01 20:52S 31°05' E 034°27'  
2017-May-28 22:09S 20°57' E 057°02'614.4
2017-May-28 21:43S 20°55' E 057°08'514.3
2017-May-28 21:21S 20°52' E 057°13'1914.2
2017-May-28 20:02S 20°44' E 057°31'513.7
2017-May-28 19:41S 20°41' E 057°35'413.7
2017-May-28 19:24S 20°39' E 057°39'613.5
2017-May-28 19:00S 20°36' E 057°43'  

Dump ship's entire track history